createdAt,value
2022-08-18T00:01:49.505Z,24.20
2022-08-18T00:04:48.561Z,24.20
2022-08-18T00:07:36.338Z,24.30
2022-08-18T00:10:22.837Z,24.30
2022-08-18T00:13:09.462Z,24.00
2022-08-18T00:15:55.938Z,23.90
2022-08-18T00:18:43.719Z,23.90
2022-08-18T00:21:30.457Z,23.90
2022-08-18T00:24:16.657Z,23.90
2022-08-18T00:27:03.411Z,23.70
2022-08-18T00:29:50.010Z,23.60
2022-08-18T00:32:39.319Z,23.60
2022-08-18T00:35:30.287Z,23.90
2022-08-18T00:38:24.755Z,24.10
2022-08-18T00:41:12.048Z,24.00
2022-08-18T00:43:59.371Z,24.10
2022-08-18T00:46:45.787Z,24.10
2022-08-18T00:49:32.211Z,24.10
2022-08-18T00:52:21.095Z,23.80
2022-08-18T00:55:08.413Z,23.70
2022-08-18T00:57:58.544Z,23.60
2022-08-18T01:00:46.261Z,23.50
2022-08-18T01:03:35.211Z,23.30
2022-08-18T01:06:28.683Z,23.30
2022-08-18T01:09:18.556Z,23.40
2022-08-18T01:12:39.419Z,23.40
2022-08-18T01:15:27.851Z,23.20
2022-08-18T01:18:34.086Z,23.10
2022-08-18T01:21:42.442Z,23.10
2022-08-18T01:24:52.297Z,23.20
2022-08-18T01:27:41.816Z,23.30
2022-08-18T01:30:28.096Z,23.40
2022-08-18T01:33:14.384Z,23.60
2022-08-18T01:36:04.333Z,23.60
2022-08-18T01:38:52.977Z,23.60
2022-08-18T01:41:41.867Z,23.60
2022-08-18T01:44:28.443Z,23.60
2022-08-18T01:47:17.061Z,23.60
2022-08-18T01:50:05.796Z,23.60
2022-08-18T01:52:53.425Z,23.60
2022-08-18T01:55:44.416Z,23.60
2022-08-18T01:58:32.462Z,23.70
2022-08-18T02:01:19.087Z,23.70
2022-08-18T02:04:33.273Z,23.70
2022-08-18T02:07:15.334Z,23.70
2022-08-18T02:10:02.020Z,23.70
2022-08-18T02:12:49.001Z,23.70
2022-08-18T02:15:37.100Z,23.60
2022-08-18T02:18:47.795Z,23.60
2022-08-18T02:21:33.834Z,23.60
2022-08-18T02:24:20.764Z,23.60
2022-08-18T02:27:08.210Z,23.60
2022-08-18T02:29:54.672Z,23.60
2022-08-18T02:32:42.510Z,23.60
2022-08-18T02:35:29.153Z,23.60
2022-08-18T02:38:17.347Z,23.60
2022-08-18T02:41:06.509Z,23.50
2022-08-18T02:43:52.938Z,23.60
2022-08-18T02:46:40.735Z,23.70
2022-08-18T02:49:29.198Z,23.60
2022-08-18T02:52:17.288Z,23.60
2022-08-18T02:55:04.710Z,23.60
2022-08-18T02:57:52.035Z,23.50
2022-08-18T03:00:39.018Z,23.50
2022-08-18T03:03:25.553Z,23.40
2022-08-18T03:06:13.401Z,23.40
2022-08-18T03:08:59.857Z,23.30
2022-08-18T03:11:47.358Z,23.20
2022-08-18T03:14:33.790Z,23.30
2022-08-18T03:17:20.082Z,23.20
2022-08-18T03:20:08.007Z,23.30
2022-08-18T03:22:56.621Z,23.40
2022-08-18T03:25:48.380Z,23.40
2022-08-18T03:28:35.058Z,23.40
2022-08-18T03:31:23.654Z,23.50
2022-08-18T03:34:11.022Z,23.50
2022-08-18T03:36:57.495Z,23.60
2022-08-18T03:39:45.503Z,23.60
2022-08-18T03:42:32.242Z,23.60
2022-08-18T03:45:18.962Z,23.60
2022-08-18T03:48:05.893Z,23.60
2022-08-18T03:50:52.502Z,23.50
2022-08-18T03:53:39.530Z,23.70
2022-08-18T03:56:33.067Z,23.80
2022-08-18T03:59:22.723Z,23.60
2022-08-18T04:02:09.493Z,23.70
2022-08-18T04:04:56.228Z,23.70
2022-08-18T04:07:43.091Z,23.60
2022-08-18T04:10:31.048Z,23.50
2022-08-18T04:13:19.014Z,23.60
2022-08-18T04:16:06.071Z,23.70
2022-08-18T04:18:53.019Z,23.90
2022-08-18T04:21:42.216Z,23.90
2022-08-18T04:24:31.248Z,23.80
2022-08-18T04:27:20.023Z,23.70
2022-08-18T04:30:09.577Z,23.80
2022-08-18T04:32:55.837Z,23.90
2022-08-18T04:35:42.175Z,23.90
2022-08-18T04:38:28.545Z,23.70
2022-08-18T04:41:15.403Z,23.70
2022-08-18T04:44:05.587Z,23.60
2022-08-18T04:46:55.105Z,23.50
2022-08-18T04:49:44.520Z,23.50
2022-08-18T04:52:48.515Z,23.40
2022-08-18T04:55:35.025Z,23.50
2022-08-18T04:58:21.941Z,23.40
2022-08-18T05:01:09.992Z,23.50
2022-08-18T05:03:59.626Z,23.70
2022-08-18T05:06:47.267Z,23.60
2022-08-18T05:09:33.686Z,23.60
2022-08-18T05:12:28.845Z,23.80
2022-08-18T05:15:15.183Z,24.00
2022-08-18T05:18:01.442Z,24.10
2022-08-18T05:20:49.885Z,24.20
2022-08-18T05:23:36.327Z,24.40
2022-08-18T05:26:22.668Z,24.40
2022-08-18T05:29:18.991Z,24.50
2022-08-18T05:32:07.804Z,24.60
2022-08-18T05:34:54.677Z,24.70
2022-08-18T05:37:53.384Z,24.80
2022-08-18T05:40:40.272Z,24.90
2022-08-18T05:43:26.898Z,25.00
2022-08-18T05:46:13.292Z,25.10
2022-08-18T05:49:01.879Z,25.10
2022-08-18T05:51:50.273Z,25.10
2022-08-18T05:54:59.385Z,25.10
2022-08-18T05:57:51.410Z,25.10
2022-08-18T06:00:38.356Z,25.10
2022-08-18T06:03:27.991Z,25.20
2022-08-18T06:06:20.795Z,25.20
2022-08-18T06:09:14.923Z,25.20
2022-08-18T06:12:14.044Z,25.10
2022-08-18T06:15:09.256Z,25.00
2022-08-18T06:18:27.326Z,25.10
2022-08-18T06:21:38.316Z,25.10
2022-08-18T06:24:32.514Z,25.30
2022-08-18T06:27:29.744Z,25.40
2022-08-18T06:30:21.267Z,25.50
2022-08-18T06:33:17.372Z,25.60
2022-08-18T06:36:10.437Z,25.60
2022-08-18T06:39:06.610Z,25.80
2022-08-18T06:41:54.057Z,26.00
2022-08-18T06:44:46.079Z,26.00
2022-08-18T06:47:40.816Z,26.00
2022-08-18T06:50:33.472Z,26.00
2022-08-18T06:53:27.784Z,26.10
2022-08-18T06:56:26.479Z,26.20
2022-08-18T06:59:24.934Z,26.40
2022-08-18T07:02:21.807Z,26.50
2022-08-18T07:05:19.166Z,26.50
2022-08-18T07:08:16.175Z,26.70
2022-08-18T07:11:15.283Z,26.70
2022-08-18T07:14:17.178Z,26.70
2022-08-18T07:17:09.035Z,26.60
2022-08-18T07:19:59.703Z,26.60
2022-08-18T07:22:54.656Z,26.60
2022-08-18T07:25:43.590Z,26.60
2022-08-18T07:28:32.691Z,26.60
2022-08-18T07:31:40.946Z,26.60
2022-08-18T07:34:37.389Z,26.60
2022-08-18T07:37:30.376Z,26.60
2022-08-18T07:40:24.793Z,26.50
2022-08-18T07:43:18.564Z,26.50
2022-08-18T07:46:11.809Z,26.50
2022-08-18T07:48:59.389Z,26.50
2022-08-18T07:51:53.138Z,26.50
2022-08-18T07:54:51.487Z,26.40
2022-08-18T07:57:45.979Z,26.50
2022-08-18T08:00:58.316Z,26.50
2022-08-18T08:03:55.538Z,26.40
2022-08-18T08:07:06.444Z,26.50
2022-08-18T08:10:02.827Z,26.50
2022-08-18T08:13:08.758Z,26.40
2022-08-18T08:16:03.617Z,26.30
2022-08-18T08:18:59.674Z,26.10
2022-08-18T08:21:56.765Z,26.00
2022-08-18T08:24:50.584Z,26.10
2022-08-18T08:27:54.261Z,26.10
2022-08-18T08:30:48.455Z,26.20
2022-08-18T08:33:42.947Z,26.10
2022-08-18T08:36:35.412Z,26.00
2022-08-18T08:39:28.683Z,25.80
2022-08-18T08:42:31.678Z,25.70
2022-08-18T08:45:25.171Z,25.70
2022-08-18T08:48:18.611Z,25.80
2022-08-18T08:51:22.158Z,25.90
2022-08-18T08:54:16.156Z,25.80
2022-08-18T08:57:04.135Z,26.00
2022-08-18T08:59:52.711Z,26.10
2022-08-18T09:02:55.602Z,25.90
2022-08-18T09:05:56.184Z,25.80
2022-08-18T09:09:00.766Z,25.70
2022-08-18T09:12:06.093Z,25.70
2022-08-18T09:15:17.651Z,25.60
2022-08-18T09:18:30.070Z,25.50
2022-08-18T09:21:33.498Z,25.50
2022-08-18T09:24:26.715Z,25.60
2022-08-18T09:27:24.315Z,25.70
2022-08-18T09:30:40.258Z,25.70
2022-08-18T09:33:49.125Z,25.80
2022-08-18T09:36:46.058Z,25.90
2022-08-18T09:43:13.139Z,25.90
2022-08-18T09:46:08.707Z,26.10
2022-08-18T09:49:47.598Z,26.20
2022-08-18T09:52:58.266Z,26.20
2022-08-18T09:56:01.427Z,26.40
2022-08-18T09:58:55.801Z,26.50
2022-08-18T10:01:42.516Z,26.80
2022-08-18T10:04:35.394Z,27.00
2022-08-18T10:07:43.196Z,27.20
2022-08-18T10:11:02.368Z,27.40
2022-08-18T10:13:51.062Z,27.60
2022-08-18T10:20:04.916Z,27.90
2022-08-18T10:22:51.704Z,28.10
2022-08-18T10:25:41.903Z,28.10
2022-08-18T10:28:53.550Z,28.20
2022-08-18T10:32:14.024Z,28.20
2022-08-18T10:35:02.235Z,28.30
2022-08-18T10:37:50.838Z,28.40
2022-08-18T10:40:38.807Z,28.70
2022-08-18T10:43:55.187Z,28.80
2022-08-18T10:46:46.731Z,29.00
2022-08-18T10:49:34.540Z,29.00
2022-08-18T10:53:24.118Z,29.00
2022-08-18T10:56:04.109Z,29.00
2022-08-18T10:59:06.813Z,29.30
2022-08-18T11:02:13.265Z,29.10
2022-08-18T11:05:07.840Z,29.10
2022-08-18T11:08:01.771Z,29.10
2022-08-18T11:11:27.708Z,29.20
2022-08-18T11:14:08.246Z,29.00
2022-08-18T11:17:06.914Z,28.90
2022-08-18T11:19:55.383Z,28.80
2022-08-18T11:22:51.734Z,28.80
2022-08-18T11:25:41.994Z,28.80
2022-08-18T11:28:31.807Z,28.80
2022-08-18T11:31:19.160Z,28.70
2022-08-18T11:34:18.367Z,28.60
2022-08-18T11:37:09.850Z,28.60
2022-08-18T11:39:58.905Z,28.40
2022-08-18T11:42:55.804Z,28.30
2022-08-18T11:45:54.074Z,28.30
2022-08-18T11:48:52.144Z,28.30
2022-08-18T11:51:56.555Z,28.20
2022-08-18T11:54:50.807Z,28.10
2022-08-18T11:57:58.659Z,27.90
2022-08-18T12:01:01.640Z,27.90
2022-08-18T12:03:50.127Z,27.80
2022-08-18T12:06:38.180Z,27.80
2022-08-18T12:12:53.945Z,27.80
2022-08-18T12:15:46.570Z,27.80
2022-08-18T12:18:33.781Z,28.10
2022-08-18T12:21:21.358Z,28.20
2022-08-18T12:24:14.841Z,28.30
2022-08-18T12:27:01.521Z,28.40
2022-08-18T12:33:17.603Z,28.40
2022-08-18T12:36:12.087Z,28.20
2022-08-18T12:39:00.168Z,28.20
2022-08-18T12:41:47.522Z,28.10
2022-08-18T12:44:34.234Z,28.00
2022-08-18T12:47:24.972Z,27.90
2022-08-18T12:50:17.555Z,27.70
2022-08-18T12:53:04.501Z,27.70
2022-08-18T12:55:51.252Z,27.70
2022-08-18T12:58:37.493Z,27.50
2022-08-18T13:01:27.512Z,27.60
2022-08-18T13:07:23.047Z,27.70
2022-08-18T13:10:10.148Z,27.80
2022-08-18T13:13:18.675Z,27.70
2022-08-18T13:16:08.012Z,27.70
2022-08-18T13:18:54.649Z,27.80
2022-08-18T13:21:43.172Z,27.80
2022-08-18T13:24:29.642Z,27.80
2022-08-18T13:27:18.534Z,27.80
2022-08-18T13:30:26.188Z,27.90
2022-08-18T13:33:34.632Z,27.80
2022-08-18T13:36:28.931Z,27.70
2022-08-18T13:39:18.881Z,27.50
2022-08-18T13:42:26.604Z,27.50
2022-08-18T13:45:24.627Z,27.40
2022-08-18T13:48:12.330Z,27.40
2022-08-18T13:51:01.766Z,27.30
2022-08-18T13:54:17.384Z,27.30
2022-08-18T13:56:56.143Z,27.20
2022-08-18T13:59:46.480Z,27.10
2022-08-18T14:02:33.421Z,26.90
2022-08-18T14:05:20.142Z,26.70
2022-08-18T14:08:07.142Z,26.60
2022-08-18T14:10:58.307Z,26.60
2022-08-18T14:13:46.842Z,26.40
2022-08-18T14:16:36.043Z,26.50
2022-08-18T14:19:46.268Z,26.50
2022-08-18T14:22:50.300Z,26.50
2022-08-18T14:25:54.450Z,26.40
2022-08-18T14:28:42.951Z,26.40
2022-08-18T14:31:30.786Z,26.40
2022-08-18T14:34:21.637Z,26.40
2022-08-18T14:37:14.906Z,26.60
2022-08-18T14:40:01.772Z,26.80
2022-08-18T14:42:54.993Z,26.90
2022-08-18T14:45:45.761Z,26.80
2022-08-18T14:48:34.548Z,26.70
2022-08-18T14:51:23.449Z,26.80
2022-08-18T14:54:17.894Z,26.80
2022-08-18T14:57:09.110Z,26.70
2022-08-18T14:59:55.889Z,26.80
2022-08-18T15:02:44.061Z,26.50
2022-08-18T15:05:34.362Z,26.30
2022-08-18T15:11:12.710Z,26.10
2022-08-18T15:14:01.445Z,26.10
2022-08-18T15:16:48.684Z,26.10
2022-08-18T15:19:58.577Z,26.10
2022-08-18T15:23:04.026Z,26.20
2022-08-18T15:25:51.286Z,26.20
2022-08-18T15:28:38.876Z,26.30
2022-08-18T15:34:46.782Z,26.30
2022-08-18T15:37:38.258Z,26.10
2022-08-18T15:40:41.267Z,26.00
2022-08-18T15:43:31.538Z,26.10
2022-08-18T15:46:18.290Z,26.10
2022-08-18T15:49:09.572Z,26.10
2022-08-18T15:51:59.698Z,26.10
2022-08-18T15:54:51.045Z,26.10
2022-08-18T15:57:40.287Z,26.00
2022-08-18T16:00:29.714Z,26.10
2022-08-18T16:03:17.627Z,26.10
2022-08-18T16:06:04.229Z,26.10
2022-08-18T16:08:53.051Z,26.00
2022-08-18T16:11:41.418Z,26.00
2022-08-18T16:14:30.229Z,25.90
2022-08-18T16:17:23.607Z,25.90
2022-08-18T16:20:11.400Z,25.90
2022-08-18T16:22:58.707Z,26.00
2022-08-18T16:25:45.027Z,25.90
2022-08-18T16:28:34.632Z,26.00
2022-08-18T16:31:29.319Z,26.10
2022-08-18T16:34:15.870Z,26.10
2022-08-18T16:37:02.478Z,26.20
2022-08-18T16:39:49.050Z,26.30
2022-08-18T16:42:35.931Z,26.20
2022-08-18T16:45:22.566Z,26.20
2022-08-18T16:48:13.291Z,26.10
2022-08-18T16:51:01.908Z,26.10
2022-08-18T16:53:49.520Z,26.10
2022-08-18T16:56:37.512Z,26.10
2022-08-18T16:59:41.303Z,26.10
2022-08-18T17:02:45.597Z,26.10
2022-08-18T17:05:33.945Z,26.00
2022-08-18T17:08:20.446Z,26.10
2022-08-18T17:11:09.782Z,26.10
2022-08-18T17:13:58.060Z,26.10
2022-08-18T17:16:46.181Z,26.10
2022-08-18T17:19:35.355Z,26.10
2022-08-18T17:22:23.784Z,26.10
2022-08-18T17:25:14.509Z,26.10
2022-08-18T17:28:06.169Z,25.90
2022-08-18T17:30:56.785Z,25.80
2022-08-18T17:33:46.033Z,25.70
2022-08-18T17:36:37.277Z,25.70
2022-08-18T17:39:33.745Z,25.70
2022-08-18T17:42:29.123Z,25.50
2022-08-18T17:45:21.711Z,25.50
2022-08-18T17:48:14.334Z,25.50
2022-08-18T17:51:22.425Z,25.50
2022-08-18T17:54:18.105Z,25.50
2022-08-18T17:57:09.849Z,25.40
2022-08-18T18:05:45.131Z,25.20
2022-08-18T18:08:55.418Z,25.30
2022-08-18T18:11:47.057Z,25.20
2022-08-18T18:14:39.495Z,25.20
2022-08-18T18:17:28.353Z,25.20
2022-08-18T18:20:24.819Z,25.20
2022-08-18T18:23:17.976Z,25.20
2022-08-18T18:26:28.305Z,25.20
2022-08-18T18:29:19.108Z,25.20
2022-08-18T18:32:23.404Z,25.30
2022-08-18T18:35:16.886Z,25.20
2022-08-18T18:38:06.478Z,25.30
2022-08-18T18:41:00.062Z,25.20
2022-08-18T18:43:48.958Z,25.20
2022-08-18T18:46:41.249Z,25.20
2022-08-18T18:49:38.378Z,25.20
2022-08-18T18:52:37.062Z,25.10
2022-08-18T18:55:25.676Z,25.00
2022-08-18T18:58:22.697Z,24.90
2022-08-18T19:01:17.301Z,24.90
2022-08-18T19:04:08.790Z,24.90
2022-08-18T19:07:00.790Z,24.90
2022-08-18T19:09:52.363Z,25.00
2022-08-18T19:12:46.518Z,25.00
2022-08-18T19:15:38.337Z,24.90
2022-08-18T19:18:29.145Z,24.90
2022-08-18T19:22:02.120Z,24.90
2022-08-18T19:24:31.157Z,24.80
2022-08-18T19:27:26.270Z,24.70
2022-08-18T19:30:16.967Z,24.70
2022-08-18T19:33:06.433Z,24.70
2022-08-18T19:35:59.397Z,24.70
2022-08-18T19:38:55.105Z,24.60
2022-08-18T19:41:48.001Z,24.50
2022-08-18T19:44:47.380Z,24.60
2022-08-18T19:47:52.090Z,24.60
2022-08-18T19:50:44.290Z,24.60
2022-08-18T19:53:52.617Z,24.60
2022-08-18T19:56:57.186Z,24.50
2022-08-18T20:00:05.633Z,24.50
2022-08-18T20:03:18.477Z,24.60
2022-08-18T20:06:34.561Z,24.70
2022-08-18T20:09:40.768Z,24.90
2022-08-18T20:12:56.600Z,24.70
2022-08-18T20:16:10.706Z,24.80
2022-08-18T20:18:57.859Z,24.60
2022-08-18T20:21:47.718Z,24.50
2022-08-18T20:24:46.315Z,24.30
2022-08-18T20:27:36.942Z,24.20
2022-08-18T20:30:28.159Z,24.10
2022-08-18T20:33:20.084Z,24.30
2022-08-18T20:36:17.534Z,24.40
2022-08-18T20:39:43.985Z,24.50
2022-08-18T20:42:57.538Z,24.50
2022-08-18T20:46:06.760Z,24.30
2022-08-18T20:49:13.158Z,24.20
2022-08-18T20:52:06.488Z,24.20
2022-08-18T20:55:10.780Z,24.20
2022-08-18T20:58:05.445Z,24.30
2022-08-18T21:00:58.164Z,24.10
2022-08-18T21:03:46.637Z,24.00
2022-08-18T21:06:37.625Z,24.00
2022-08-18T21:15:10.553Z,23.00
2022-08-18T21:18:01.540Z,22.90
2022-08-18T21:20:48.207Z,22.90
2022-08-18T21:23:37.516Z,22.60
2022-08-18T21:26:25.903Z,22.40
2022-08-18T21:29:14.288Z,22.30
2022-08-18T21:32:12.022Z,22.30
2022-08-18T21:35:01.878Z,22.20
2022-08-18T21:37:56.313Z,22.10
2022-08-18T21:40:46.498Z,22.10
2022-08-18T21:43:48.855Z,22.10
2022-08-18T21:46:36.010Z,22.10
2022-08-18T21:49:26.694Z,22.10
2022-08-18T21:52:24.040Z,22.10
2022-08-18T21:55:22.298Z,22.20
2022-08-18T21:58:19.397Z,22.40
2022-08-18T22:01:24.238Z,22.50
2022-08-18T22:04:24.224Z,22.40
2022-08-18T22:07:22.025Z,22.20
2022-08-18T22:10:44.423Z,22.20
2022-08-18T22:13:48.781Z,22.00
2022-08-18T22:16:37.383Z,22.00
2022-08-18T22:19:26.597Z,22.00
2022-08-18T22:22:37.306Z,22.10
2022-08-18T22:25:24.519Z,22.20
2022-08-18T22:28:11.064Z,22.30
2022-08-18T22:30:59.329Z,22.60
2022-08-18T22:33:46.328Z,22.70
2022-08-18T22:36:37.217Z,22.90
2022-08-18T22:39:29.342Z,22.90
2022-08-18T22:42:17.056Z,22.90
2022-08-18T22:45:08.443Z,22.80
2022-08-18T22:47:57.339Z,22.70
2022-08-18T22:50:43.985Z,22.70
2022-08-18T22:53:30.565Z,23.00
2022-08-18T22:56:23.750Z,23.20
2022-08-18T22:59:21.079Z,23.10
2022-08-18T23:02:07.731Z,23.40
2022-08-18T23:04:54.225Z,23.40
2022-08-18T23:07:40.537Z,23.40
2022-08-18T23:10:27.202Z,23.50
2022-08-18T23:13:16.627Z,23.40
2022-08-18T23:16:30.187Z,23.50
2022-08-18T23:19:09.053Z,23.50
2022-08-18T23:21:55.971Z,23.60
2022-08-18T23:24:42.549Z,23.60
2022-08-18T23:27:28.818Z,23.60
2022-08-18T23:30:16.550Z,23.50
2022-08-18T23:33:03.488Z,23.50
2022-08-18T23:35:50.393Z,23.40
2022-08-18T23:38:38.258Z,23.40
2022-08-18T23:41:25.271Z,23.30
2022-08-18T23:44:13.702Z,23.30
2022-08-18T23:47:03.254Z,23.30
2022-08-18T23:49:49.846Z,23.10
2022-08-18T23:52:36.223Z,23.00
2022-08-18T23:55:22.794Z,23.10
2022-08-18T23:58:09.483Z,23.20
